Time;durP1;ratioP1;P1;durP2;ratioP2;P2;SDS_P1;SDS_P2;PMS_P1;PMS_P2;Temp;Humidity;BMP_temperature;BMP_pressure;BME280_temperature;BME280_humidity;BME280_pressure;Samples;Min_cycle;Max_cycle;Signal;HPM_P1;HPM_P2
2023/05/13 00:02:01;;;;;;;1.43;1.30;;;18.00;57.90;;;;;;5012168;28;20575;-67
2023/05/13 00:04:28;;;;;;;1.63;1.52;;;18.00;58.00;;;;;;5008481;28;20232;-67
2023/05/13 00:06:55;;;;;;;1.33;1.33;;;18.00;58.60;;;;;;5010795;28;20266;-66
2023/05/13 00:09:22;;;;;;;1.60;1.50;;;17.90;57.90;;;;;;4994093;28;20208;-67
2023/05/13 00:11:49;;;;;;;4.57;1.95;;;17.90;58.00;;;;;;5009235;28;20271;-67
2023/05/13 00:14:20;;;;;;;2.40;2.20;;;17.90;58.10;;;;;;5012179;28;20204;-67
2023/05/13 00:16:47;;;;;;;1.90;1.80;;;17.80;58.20;;;;;;5011983;28;20191;-66
2023/05/13 00:19:14;;;;;;;2.23;2.13;;;17.80;58.20;;;;;;5008351;28;20208;-68
2023/05/13 00:21:41;;;;;;;1.80;1.70;;;17.80;58.40;;;;;;5011408;28;20223;-67
2023/05/13 00:24:09;;;;;;;2.40;2.20;;;17.80;58.30;;;;;;4993157;28;20539;-66
2023/05/13 00:26:36;;;;;;;1.73;1.63;;;17.80;58.30;;;;;;5007462;28;20249;-66
2023/05/13 00:29:03;;;;;;;2.20;2.10;;;17.80;58.30;;;;;;5012294;28;20191;-68
2023/05/13 00:31:31;;;;;;;3.20;1.90;;;17.80;58.30;;;;;;5011731;28;20274;-66
2023/05/13 00:33:58;;;;;;;2.00;1.53;;;17.80;58.40;;;;;;4987139;28;20201;-67
2023/05/13 00:36:26;;;;;;;2.63;1.60;;;17.80;58.50;;;;;;4992208;28;20235;-66
2023/05/13 00:38:53;;;;;;;1.90;1.80;;;17.70;58.60;;;;;;5008955;28;20511;-67
2023/05/13 00:41:22;;;;;;;2.63;2.40;;;17.70;58.60;;;;;;5008529;28;20727;-66
2023/05/13 00:43:50;;;;;;;1.93;1.73;;;17.70;58.70;;;;;;5006063;28;20232;-66
2023/05/13 00:46:17;;;;;;;2.25;2.10;;;17.70;58.70;;;;;;5008186;28;20420;-67
2023/05/13 00:48:45;;;;;;;2.08;1.98;;;17.70;58.70;;;;;;5010768;28;20196;-67
2023/05/13 00:51:12;;;;;;;2.08;1.88;;;17.60;58.80;;;;;;5010948;28;20240;-67
2023/05/13 00:53:40;;;;;;;1.80;1.70;;;17.60;58.80;;;;;;5005253;28;20567;-66
2023/05/13 00:56:07;;;;;;;1.70;1.60;;;17.60;58.90;;;;;;4992766;28;20251;-66
2023/05/13 00:58:34;;;;;;;1.70;1.60;;;17.60;58.90;;;;;;5009292;28;20223;-67
2023/05/13 01:01:11;;;;;;;2.93;2.00;;;17.60;58.90;;;;;;5004399;28;20683;-67
2023/05/13 01:03:47;;;;;;;2.47;1.87;;;17.50;58.90;;;;;;5009996;28;20224;-67
2023/05/13 01:06:21;;;;;;;2.33;1.80;;;17.50;59.00;;;;;;5010285;28;20570;-67
2023/05/13 01:08:58;;;;;;;1.80;1.70;;;17.50;59.10;;;;;;5006984;28;20258;-66
2023/05/13 01:11:29;;;;;;;1.60;1.50;;;17.50;59.10;;;;;;4993750;28;20203;-65
2023/05/13 01:14:03;;;;;;;1.50;1.30;;;17.50;59.20;;;;;;5011341;28;20192;-67
2023/05/13 01:16:35;;;;;;;1.80;1.70;;;17.50;59.20;;;;;;5008381;28;20265;-66
2023/05/13 01:19:14;;;;;;;2.03;1.53;;;17.40;59.30;;;;;;5010030;28;20538;-66
2023/05/13 01:21:51;;;;;;;1.87;1.70;;;17.30;59.40;;;;;;4989090;28;20750;-67
2023/05/13 01:24:18;;;;;;;1.80;1.70;;;17.20;59.50;;;;;;4997995;28;20202;-67
2023/05/13 01:26:45;;;;;;;1.67;1.57;;;17.20;59.60;;;;;;5010817;28;20326;-67
2023/05/13 01:29:13;;;;;;;1.97;1.60;;;17.20;59.70;;;;;;4990785;28;20238;-66
2023/05/13 01:31:41;;;;;;;1.50;1.40;;;17.20;59.70;;;;;;4993346;28;20215;-67
2023/05/13 01:34:10;;;;;;;1.70;1.60;;;17.10;59.70;;;;;;4992603;28;20207;-66
2023/05/13 01:36:39;;;;;;;1.30;1.30;;;17.10;59.80;;;;;;4989836;28;20193;-66
2023/05/13 01:39:08;;;;;;;1.70;1.60;;;17.10;59.80;;;;;;4992017;28;20567;-66
2023/05/13 01:41:36;;;;;;;1.40;1.30;;;17.10;60.70;;;;;;5008811;28;20203;-68
2023/05/13 01:44:03;;;;;;;2.10;2.00;;;17.10;59.90;;;;;;4989900;28;20567;-67
2023/05/13 01:46:31;;;;;;;1.67;1.57;;;17.10;60.00;;;;;;5003994;28;20510;-67
2023/05/13 01:48:58;;;;;;;2.50;1.80;;;17.10;60.00;;;;;;5004088;28;20616;-67
2023/05/13 01:51:25;;;;;;;1.77;1.67;;;17.10;60.00;;;;;;4989550;28;20198;-66
2023/05/13 01:53:52;;;;;;;4.63;1.70;;;17.10;60.10;;;;;;4990005;28;20255;-65
2023/05/13 01:56:21;;;;;;;1.90;1.80;;;17.00;60.10;;;;;;4992577;28;20207;-65
2023/05/13 01:58:49;;;;;;;1.90;1.80;;;17.00;60.20;;;;;;4989449;28;20680;-66
2023/05/13 02:01:16;;;;;;;2.37;2.00;;;17.10;60.30;;;;;;5009030;28;20199;-66
2023/05/13 02:03:43;;;;;;;3.20;1.90;;;17.10;60.30;;;;;;4990410;28;20242;-66
2023/05/13 02:06:11;;;;;;;1.73;1.63;;;17.10;60.40;;;;;;5013095;28;20255;-67
2023/05/13 02:08:40;;;;;;;2.00;1.90;;;17.10;60.40;;;;;;4995555;28;20211;-66
2023/05/13 02:11:07;;;;;;;2.10;1.97;;;17.00;60.50;;;;;;5010160;28;20203;-67
2023/05/13 02:13:36;;;;;;;2.27;2.07;;;17.00;60.60;;;;;;4995901;28;20221;-67
2023/05/13 02:16:03;;;;;;;2.30;2.10;;;17.00;60.70;;;;;;5014517;28;20539;-67
2023/05/13 02:18:30;;;;;;;2.07;1.90;;;17.00;60.80;;;;;;5010573;28;20572;-67
2023/05/13 02:20:57;;;;;;;1.83;1.73;;;17.10;60.80;;;;;;5008232;28;20201;-66
2023/05/13 02:23:24;;;;;;;2.87;2.00;;;17.10;60.80;;;;;;5012657;28;20199;-66
2023/05/13 02:25:51;;;;;;;4.10;2.03;;;17.10;60.90;;;;;;5013310;28;20607;-66
2023/05/13 02:28:18;;;;;;;2.33;2.13;;;17.10;60.90;;;;;;4993592;28;20299;-66
2023/05/13 02:30:47;;;;;;;1.60;1.50;;;17.10;60.90;;;;;;5010709;28;20287;-66
2023/05/13 02:33:14;;;;;;;1.87;1.77;;;17.10;60.90;;;;;;4993856;28;20668;-67
2023/05/13 02:35:42;;;;;;;2.00;1.90;;;17.00;61.40;;;;;;4996569;28;20209;-67
2023/05/13 02:38:09;;;;;;;2.00;1.90;;;17.00;62.00;;;;;;5012840;28;20521;-67
2023/05/13 02:40:36;;;;;;;2.50;1.83;;;16.90;61.50;;;;;;5010632;28;20299;-65
2023/05/13 02:43:04;;;;;;;1.90;1.80;;;16.90;61.30;;;;;;4992733;28;20294;-68
2023/05/13 02:45:46;;;;;;;2.13;1.60;;;16.80;61.30;;;;;;4991192;28;20203;-66
2023/05/13 02:48:13;;;;;;;2.30;1.90;;;16.80;61.40;;;;;;5010242;28;20647;-66
2023/05/13 02:50:40;;;;;;;1.67;1.57;;;16.80;61.40;;;;;;5006959;28;20195;-67
2023/05/13 02:53:10;;;;;;;1.83;1.73;;;16.80;61.50;;;;;;5010000;28;20317;-66
2023/05/13 02:55:41;;;;;;;2.23;1.73;;;16.80;61.50;;;;;;4987779;28;20687;-67
2023/05/13 02:58:09;;;;;;;2.27;2.00;;;16.90;61.60;;;;;;5006551;28;20190;-66
2023/05/13 03:00:36;;;;;;;1.67;1.47;;;16.90;61.60;;;;;;5005394;28;20200;-65
2023/05/13 03:03:05;;;;;;;1.90;1.80;;;16.80;61.50;;;;;;5004563;28;20235;-65
2023/05/13 03:05:32;;;;;;;1.43;1.37;;;16.80;61.60;;;;;;5014121;28;20188;-66
2023/05/13 03:07:59;;;;;;;2.07;1.90;;;16.80;61.80;;;;;;5008531;28;20235;-66
2023/05/13 03:10:26;;;;;;;2.10;2.00;;;16.80;61.80;;;;;;4994934;28;20670;-65
2023/05/13 03:12:53;;;;;;;1.93;1.83;;;16.80;61.90;;;;;;5013555;28;20199;-65
2023/05/13 03:15:20;;;;;;;2.03;1.83;;;16.90;62.30;;;;;;4992252;28;20207;-65
2023/05/13 03:17:47;;;;;;;2.30;1.70;;;16.80;61.90;;;;;;5011717;28;20725;-66
2023/05/13 03:20:16;;;;;;;1.77;1.67;;;16.80;62.00;;;;;;4995662;28;20238;-66
2023/05/13 03:22:43;;;;;;;2.30;1.93;;;16.80;62.00;;;;;;4991984;28;20200;-66
2023/05/13 03:25:12;;;;;;;1.90;1.80;;;16.80;62.10;;;;;;4995263;28;20215;-66
2023/05/13 03:27:43;;;;;;;1.80;1.70;;;16.90;62.20;;;;;;4995216;28;20307;-66
2023/05/13 03:30:12;;;;;;;1.70;1.60;;;16.90;62.20;;;;;;4992663;28;20217;-66
2023/05/13 03:32:51;;;;;;;2.50;1.80;;;16.80;62.20;;;;;;4994297;28;20261;-66
2023/05/13 03:35:20;;;;;;;2.43;1.80;;;16.90;62.30;;;;;;4991694;28;20229;-67
2023/05/13 03:37:47;;;;;;;1.80;1.70;;;16.90;62.40;;;;;;4992636;28;20691;-67
2023/05/13 03:40:16;;;;;;;2.87;2.17;;;16.90;62.40;;;;;;4996023;28;20257;-66
2023/05/13 03:42:43;;;;;;;2.73;2.53;;;16.90;62.40;;;;;;4991774;28;20207;-65
2023/05/13 03:45:11;;;;;;;3.83;3.10;;;16.90;62.40;;;;;;4990960;28;20210;-66
2023/05/13 03:47:40;;;;;;;3.27;2.97;;;16.90;62.40;;;;;;4990106;28;20644;-65
2023/05/13 03:50:11;;;;;;;4.03;3.00;;;16.90;62.60;;;;;;4992139;28;20298;-66
2023/05/13 03:52:44;;;;;;;5.13;3.40;;;16.80;62.60;;;;;;4994446;28;20197;-65
2023/05/13 03:55:13;;;;;;;3.87;3.10;;;16.80;63.00;;;;;;4994863;28;20253;-66
2023/05/13 03:57:40;;;;;;;4.60;2.80;;;16.80;62.80;;;;;;4988027;28;20195;-66
2023/05/13 04:00:10;;;;;;;2.93;2.70;;;16.80;62.90;;;;;;4995563;28;20236;-66
2023/05/13 04:02:41;;;;;;;2.83;2.60;;;16.90;63.00;;;;;;5011798;28;20213;-65
2023/05/13 04:05:10;;;;;;;3.20;2.90;;;16.90;63.10;;;;;;4992005;28;20195;-66
2023/05/13 04:07:37;;;;;;;2.93;2.73;;;16.90;63.20;;;;;;5008005;28;20210;-65
2023/05/13 04:10:07;;;;;;;3.60;3.27;;;16.90;63.20;;;;;;4993943;28;20679;-66
2023/05/13 04:12:34;;;;;;;3.17;2.80;;;16.90;63.30;;;;;;4991511;28;20203;-65
2023/05/13 04:15:01;;;;;;;6.10;3.63;;;16.90;63.40;;;;;;5012447;28;20659;-67
2023/05/13 04:17:28;;;;;;;3.10;2.80;;;17.00;63.70;;;;;;5009622;28;20191;-67
2023/05/13 04:19:55;;;;;;;3.40;2.63;;;17.00;63.60;;;;;;4993701;28;20241;-67
2023/05/13 04:22:24;;;;;;;3.03;2.83;;;17.00;63.70;;;;;;5011009;28;20670;-67
2023/05/13 04:24:55;;;;;;;2.73;2.50;;;17.00;63.70;;;;;;5008746;28;20606;-67
2023/05/13 04:27:24;;;;;;;2.17;2.07;;;17.10;63.90;;;;;;4991017;28;20220;-66
2023/05/13 04:29:53;;;;;;;2.87;2.40;;;17.10;64.00;;;;;;4994573;28;20196;-67
2023/05/13 04:32:21;;;;;;;3.20;2.30;;;17.10;64.00;;;;;;4991390;28;20324;-67
2023/05/13 04:34:51;;;;;;;2.03;1.93;;;17.10;64.00;;;;;;4989835;28;20338;-67
2023/05/13 04:37:18;;;;;;;3.20;2.17;;;17.10;64.10;;;;;;5009282;28;20669;-67
2023/05/13 04:39:48;;;;;;;2.10;2.00;;;17.10;64.10;;;;;;4989712;28;20698;-66
2023/05/13 04:42:17;;;;;;;3.40;1.90;;;17.10;64.20;;;;;;4993006;28;20207;-67
2023/05/13 04:44:46;;;;;;;2.17;1.97;;;17.10;64.20;;;;;;4992215;28;20221;-67
2023/05/13 04:47:14;;;;;;;2.50;2.30;;;17.20;64.40;;;;;;4990955;28;20247;-66
2023/05/13 04:49:41;;;;;;;2.30;2.10;;;17.20;64.40;;;;;;4989084;28;20203;-66
2023/05/13 04:52:11;;;;;;;1.90;1.80;;;17.20;64.30;;;;;;4991264;28;20207;-66
2023/05/13 04:54:39;;;;;;;3.17;1.70;;;17.30;64.40;;;;;;4991225;28;20278;-67
2023/05/13 04:57:06;;;;;;;2.43;2.20;;;17.30;64.50;;;;;;4989696;28;20563;-67
2023/05/13 04:59:34;;;;;;;2.67;1.73;;;17.30;64.50;;;;;;4990863;28;20211;-66
2023/05/13 05:02:03;;;;;;;2.97;2.33;;;17.40;64.50;;;;;;4988629;28;20310;-66
2023/05/13 05:04:31;;;;;;;2.73;2.13;;;17.40;64.60;;;;;;4992618;28;20233;-67
2023/05/13 05:06:58;;;;;;;2.50;2.30;;;17.40;64.60;;;;;;4987177;28;20219;-68
2023/05/13 05:09:25;;;;;;;2.37;2.17;;;17.40;64.60;;;;;;5007998;28;20203;-66
2023/05/13 05:11:53;;;;;;;2.63;1.77;;;17.40;64.60;;;;;;5010215;28;20219;-66
2023/05/13 05:14:23;;;;;;;4.17;2.07;;;17.40;64.60;;;;;;4991683;28;20271;-67
2023/05/13 05:16:51;;;;;;;2.10;2.00;;;17.40;64.70;;;;;;5009538;28;20183;-64
2023/05/13 05:19:22;;;;;;;2.27;2.07;;;17.40;64.70;;;;;;4993227;28;20331;-66
2023/05/13 05:21:50;;;;;;;3.67;2.00;;;17.50;64.90;;;;;;5002612;28;20219;-66
2023/05/13 05:24:19;;;;;;;2.40;2.13;;;17.50;64.80;;;;;;4993180;28;20663;-66
2023/05/13 05:26:47;;;;;;;2.30;2.10;;;17.60;64.80;;;;;;4993291;28;20207;-67
2023/05/13 05:29:15;;;;;;;3.20;2.40;;;17.60;64.90;;;;;;4989434;28;20679;-67
2023/05/13 05:31:44;;;;;;;2.57;2.37;;;17.60;64.90;;;;;;4993224;28;20301;-66
2023/05/13 05:34:11;;;;;;;2.73;2.23;;;17.60;64.90;;;;;;5010695;28;20209;-67
2023/05/13 05:36:40;;;;;;;2.80;2.60;;;17.70;65.10;;;;;;4990348;28;20255;-67
2023/05/13 05:39:07;;;;;;;2.37;2.20;;;17.70;65.20;;;;;;5014506;28;20683;-67
2023/05/13 05:41:36;;;;;;;2.80;2.43;;;17.80;65.20;;;;;;4996310;28;20204;-67
2023/05/13 05:44:03;;;;;;;2.27;2.10;;;17.80;65.40;;;;;;4994541;28;20206;-67
2023/05/13 05:46:32;;;;;;;2.10;2.00;;;17.80;65.50;;;;;;4999665;28;20215;-66
2023/05/13 05:49:02;;;;;;;2.30;2.10;;;17.90;65.80;;;;;;4988582;28;20220;-67
2023/05/13 05:51:30;;;;;;;2.00;1.80;;;17.50;65.50;;;;;;4997130;28;20230;-67
2023/05/13 05:54:02;;;;;;;3.63;2.00;;;17.90;66.10;;;;;;4998870;28;20212;-66
2023/05/13 05:56:29;;;;;;;2.30;2.10;;;17.90;66.20;;;;;;4996857;28;20223;-66
2023/05/13 05:58:56;;;;;;;2.03;1.92;;;17.90;66.20;;;;;;5015277;28;20184;-66
2023/05/13 06:01:24;;;;;;;1.95;1.85;;;18.00;67.20;;;;;;5003918;28;20195;-66
2023/05/13 06:03:51;;;;;;;1.67;1.57;;;18.00;66.40;;;;;;5013148;28;20303;-66
2023/05/13 06:06:18;;;;;;;2.33;2.10;;;18.00;66.50;;;;;;4999211;28;20274;-65
2023/05/13 06:08:45;;;;;;;2.47;2.13;;;18.10;66.60;;;;;;5015866;28;20535;-65
2023/05/13 06:11:15;;;;;;;2.30;2.10;;;18.10;66.50;;;;;;4996531;28;20205;-67
2023/05/13 06:13:43;;;;;;;2.08;1.98;;;18.20;66.50;;;;;;4999250;28;20199;-67
2023/05/13 06:16:10;;;;;;;1.90;1.80;;;18.20;66.40;;;;;;5007042;28;20675;-67
2023/05/13 06:18:40;;;;;;;2.27;2.07;;;18.30;66.50;;;;;;4995829;28;20598;-67
2023/05/13 06:21:07;;;;;;;2.30;2.10;;;18.30;66.50;;;;;;5017020;28;20221;-65
2023/05/13 06:23:34;;;;;;;2.43;2.20;;;18.30;66.40;;;;;;4998709;28;20215;-65
2023/05/13 06:26:01;;;;;;;2.08;1.98;;;18.30;66.30;;;;;;5014208;28;20276;-65
2023/05/13 06:28:30;;;;;;;4.37;2.50;;;18.40;66.40;;;;;;4999631;28;20582;-66
2023/05/13 06:30:57;;;;;;;2.67;2.38;;;18.50;66.30;;;;;;4999193;28;20610;-66
2023/05/13 06:33:24;;;;;;;2.03;1.90;;;18.50;66.20;;;;;;4992000;28;20200;-67
2023/05/13 06:35:52;;;;;;;2.05;1.92;;;18.60;66.10;;;;;;5000035;28;20667;-66
2023/05/13 06:38:21;;;;;;;2.70;2.20;;;18.60;66.00;;;;;;4998341;28;20291;-66
2023/05/13 06:40:51;;;;;;;4.03;2.30;;;18.70;65.90;;;;;;4996018;28;20685;-67
2023/05/13 06:43:22;;;;;;;2.65;2.45;;;18.70;65.60;;;;;;4998960;28;20310;-66
2023/05/13 06:45:58;;;;;;;5.78;2.63;;;18.80;65.60;;;;;;4995503;28;20292;-69
2023/05/13 06:48:26;;;;;;;2.72;2.33;;;18.80;65.60;;;;;;4995167;28;20564;-67
2023/05/13 06:50:53;;;;;;;3.63;2.78;;;18.90;65.60;;;;;;5001608;28;20199;-67
2023/05/13 06:53:20;;;;;;;2.40;2.20;;;19.00;65.50;;;;;;5003522;28;20242;-66
2023/05/13 06:55:48;;;;;;;2.40;2.20;;;19.00;65.40;;;;;;5004917;28;20211;-66
2023/05/13 06:58:17;;;;;;;2.15;2.05;;;19.10;65.40;;;;;;5013612;28;20228;-67
2023/05/13 07:00:45;;;;;;;3.13;1.98;;;19.10;65.20;;;;;;4990848;28;20209;-67
2023/05/13 07:03:16;;;;;;;5.45;2.55;;;19.20;65.10;;;;;;5009111;28;20312;-66
2023/05/13 07:05:43;;;;;;;2.45;2.15;;;19.30;65.20;;;;;;5013695;28;20811;-67
2023/05/13 07:08:16;;;;;;;2.42;2.15;;;19.30;65.20;;;;;;5005914;28;20330;-68
2023/05/13 07:10:43;;;;;;;3.25;2.50;;;19.40;65.30;;;;;;5007943;28;20201;-66
2023/05/13 07:13:11;;;;;;;4.45;2.42;;;19.40;65.30;;;;;;5009414;28;20199;-66
2023/05/13 07:15:38;;;;;;;3.55;2.40;;;19.50;65.30;;;;;;5008903;28;20623;-69
2023/05/13 07:18:08;;;;;;;3.00;2.22;;;19.60;65.20;;;;;;5000411;28;20666;-67
2023/05/13 07:20:36;;;;;;;2.63;2.13;;;19.60;65.20;;;;;;5013461;28;20745;-66
2023/05/13 07:23:03;;;;;;;3.95;2.35;;;19.70;65.20;;;;;;5011025;28;20199;-65
2023/05/13 07:25:30;;;;;;;2.35;2.00;;;19.80;65.40;;;;;;4986788;28;20199;-67
2023/05/13 07:27:57;;;;;;;6.28;2.40;;;19.80;65.00;;;;;;5010646;28;20261;-66
2023/05/13 07:30:25;;;;;;;2.50;2.28;;;19.90;65.00;;;;;;5013383;28;20599;-67
2023/05/13 07:32:52;;;;;;;2.13;2.03;;;20.00;65.00;;;;;;4987747;28;20655;-66
2023/05/13 07:35:19;;;;;;;2.05;1.85;;;20.00;64.90;;;;;;4983400;28;20253;-66
2023/05/13 07:37:47;;;;;;;1.83;1.73;;;20.10;64.80;;;;;;5011974;28;20195;-66
2023/05/13 07:40:14;;;;;;;1.95;1.77;;;20.10;64.60;;;;;;5012309;28;20195;-67
2023/05/13 07:42:41;;;;;;;2.00;1.90;;;20.20;64.40;;;;;;4994620;28;20203;-66
2023/05/13 07:45:10;;;;;;;2.50;2.20;;;20.30;64.40;;;;;;5010386;28;20667;-67
2023/05/13 07:47:37;;;;;;;3.30;2.13;;;20.30;64.20;;;;;;5011946;28;20650;-66
2023/05/13 07:50:04;;;;;;;4.15;2.40;;;20.40;64.20;;;;;;4994893;28;20203;-67
2023/05/13 07:52:32;;;;;;;1.80;1.67;;;20.50;64.20;;;;;;5009202;28;20214;-67
2023/05/13 07:55:00;;;;;;;2.47;2.20;;;20.60;64.20;;;;;;5012058;28;20199;-67
2023/05/13 07:57:27;;;;;;;3.63;2.30;;;20.70;64.20;;;;;;4980428;28;20250;-67
2023/05/13 07:59:54;;;;;;;2.22;1.90;;;20.70;64.00;;;;;;5004730;28;20230;-65
2023/05/13 08:02:21;;;;;;;2.00;1.90;;;20.80;63.90;;;;;;5010658;28;20207;-67
2023/05/13 08:04:50;;;;;;;2.65;2.45;;;20.80;63.60;;;;;;5011832;28;20238;-66
2023/05/13 08:07:17;;;;;;;3.30;2.45;;;20.90;63.40;;;;;;5005782;28;20515;-66
2023/05/13 08:09:44;;;;;;;2.30;2.03;;;21.00;63.30;;;;;;5011489;28;20222;-67
2023/05/13 08:12:13;;;;;;;2.00;1.90;;;21.10;63.20;;;;;;5011467;28;20230;-67
2023/05/13 08:14:39;;;;;;;2.17;1.98;;;21.10;62.70;;;;;;5012129;28;20603;-67
2023/05/13 08:17:07;;;;;;;2.95;2.20;;;21.20;62.40;;;;;;5011900;28;20238;-67
2023/05/13 08:19:35;;;;;;;1.95;1.83;;;21.20;61.90;;;;;;4990354;28;20196;-65
2023/05/13 08:22:02;;;;;;;1.60;1.50;;;21.30;61.70;;;;;;5010142;28;20249;-66
2023/05/13 08:24:29;;;;;;;2.60;1.45;;;21.40;61.30;;;;;;5012106;28;20282;-66
2023/05/13 08:26:56;;;;;;;2.13;1.60;;;21.40;61.00;;;;;;4992702;28;20196;-66
2023/05/13 08:29:25;;;;;;;2.47;1.58;;;21.50;60.80;;;;;;5000986;28;20604;-67
2023/05/13 08:31:52;;;;;;;1.85;1.75;;;21.50;60.60;;;;;;5011337;28;20682;-67
2023/05/13 08:34:19;;;;;;;1.45;1.35;;;21.60;60.30;;;;;;5009562;28;20231;-67
2023/05/13 08:36:47;;;;;;;1.50;1.40;;;21.70;60.10;;;;;;4985082;28;20301;-66
2023/05/13 08:39:14;;;;;;;1.73;1.60;;;21.70;59.80;;;;;;5011033;28;20193;-66
2023/05/13 08:41:43;;;;;;;1.70;1.60;;;21.80;59.60;;;;;;5006959;28;20407;-65
2023/05/13 08:44:13;;;;;;;1.77;1.60;;;21.80;59.50;;;;;;5005297;28;20227;-67
2023/05/13 08:46:50;;;;;;;2.22;1.58;;;21.90;59.10;;;;;;5011207;28;20207;-65
2023/05/13 08:49:18;;;;;;;1.50;1.40;;;22.00;58.90;;;;;;4991357;28;20615;-66
2023/05/13 08:51:45;;;;;;;2.40;1.38;;;22.10;58.80;;;;;;5010046;28;20733;-66
2023/05/13 08:54:15;;;;;;;1.55;1.35;;;22.10;58.60;;;;;;5009940;28;20645;-67
2023/05/13 08:56:42;;;;;;;2.47;1.80;;;22.20;58.30;;;;;;5004498;28;20539;-67
2023/05/13 08:59:09;;;;;;;3.17;1.55;;;22.30;57.90;;;;;;5002114;28;20186;-65
2023/05/13 09:01:37;;;;;;;2.65;1.70;;;22.40;57.50;;;;;;5011622;28;20595;-67
2023/05/13 09:04:08;;;;;;;1.80;1.70;;;22.40;57.10;;;;;;5010627;28;20675;-67
2023/05/13 09:06:35;;;;;;;1.63;1.52;;;22.40;56.80;;;;;;5006629;28;20187;-66
2023/05/13 09:09:04;;;;;;;1.55;1.45;;;22.50;56.60;;;;;;4992195;28;20548;-66
2023/05/13 09:11:32;;;;;;;1.65;1.55;;;22.60;56.30;;;;;;5010951;28;20199;-66
2023/05/13 09:14:00;;;;;;;1.55;1.45;;;22.60;56.10;;;;;;5009504;28;20284;-68
2023/05/13 09:16:28;;;;;;;6.85;1.95;;;22.70;56.10;;;;;;5010681;28;20199;-68
2023/05/13 09:18:59;;;;;;;2.35;1.88;;;22.80;55.80;;;;;;5009727;28;20200;-66
2023/05/13 09:21:30;;;;;;;2.13;1.67;;;22.80;55.50;;;;;;5009080;28;20215;-67
2023/05/13 09:24:09;;;;;;;1.80;1.70;;;22.90;55.50;;;;;;5008528;28;20206;-67
2023/05/13 09:26:36;;;;;;;1.52;1.42;;;23.00;55.40;;;;;;5011339;28;20223;-66
2023/05/13 09:29:17;;;;;;;2.15;1.50;;;23.10;55.30;;;;;;4993679;28;20215;-66
2023/05/13 09:31:45;;;;;;;1.63;1.45;;;23.20;55.00;;;;;;5011343;28;20208;-67
2023/05/13 09:34:12;;;;;;;1.33;1.27;;;23.20;54.70;;;;;;5010907;28;20202;-66
2023/05/13 09:36:41;;;;;;;1.30;1.30;;;23.30;54.50;;;;;;5010082;28;20203;-68
2023/05/13 09:39:08;;;;;;;2.90;1.33;;;23.30;54.30;;;;;;5009376;28;20191;-67
2023/05/13 09:41:36;;;;;;;1.52;1.42;;;23.40;54.20;;;;;;5007091;28;20207;-66
2023/05/13 09:44:03;;;;;;;4.00;1.50;;;23.50;54.00;;;;;;5010781;28;20199;-67
2023/05/13 09:46:33;;;;;;;1.60;1.50;;;23.60;53.90;;;;;;5005656;28;20617;-67
2023/05/13 09:49:00;;;;;;;2.75;1.58;;;23.60;53.80;;;;;;5008256;28;20211;-67
2023/05/13 09:51:29;;;;;;;2.35;1.60;;;23.60;53.70;;;;;;5010086;28;20289;-67
2023/05/13 09:54:03;;;;;;;1.83;1.67;;;23.70;53.50;;;;;;4992356;28;20289;-68
2023/05/13 09:56:32;;;;;;;1.50;1.40;;;23.80;53.40;;;;;;5011105;28;20244;-67
2023/05/13 09:58:59;;;;;;;1.52;1.30;;;23.80;53.30;;;;;;5010553;28;20195;-67
2023/05/13 10:01:28;;;;;;;1.50;1.40;;;23.90;53.20;;;;;;5002487;28;20192;-67
2023/05/13 10:03:55;;;;;;;1.30;1.30;;;23.90;53.20;;;;;;5009487;28;20226;-67
2023/05/13 10:06:25;;;;;;;1.45;1.33;;;24.00;53.30;;;;;;5001849;28;20257;-69
2023/05/13 10:08:53;;;;;;;1.45;1.35;;;24.00;53.30;;;;;;5009560;28;20216;-67
2023/05/13 10:11:24;;;;;;;1.60;1.50;;;24.10;53.60;;;;;;4993315;28;20351;-67
2023/05/13 10:13:55;;;;;;;1.63;1.52;;;24.10;52.90;;;;;;5010344;28;20253;-66
2023/05/13 10:16:24;;;;;;;1.55;1.45;;;24.10;52.70;;;;;;5010451;28;20191;-67
2023/05/13 10:18:55;;;;;;;1.92;1.40;;;24.20;52.70;;;;;;4992441;28;20206;-67
2023/05/13 10:21:23;;;;;;;1.88;1.40;;;24.20;52.60;;;;;;5010216;28;20658;-67
2023/05/13 10:23:51;;;;;;;1.83;1.73;;;24.30;52.50;;;;;;5004873;28;20627;-65
2023/05/13 10:26:22;;;;;;;1.50;1.40;;;24.20;52.30;;;;;;5013311;28;20195;-67
2023/05/13 10:28:50;;;;;;;3.88;1.60;;;24.30;52.30;;;;;;4996343;28;20785;-67
2023/05/13 10:31:17;;;;;;;1.33;1.30;;;24.40;52.20;;;;;;5014371;28;20203;-66
2023/05/13 10:33:45;;;;;;;2.38;1.50;;;24.50;52.00;;;;;;5012775;28;20207;-66
2023/05/13 10:36:28;;;;;;;1.58;1.33;;;24.50;51.60;;;;;;5005019;28;20249;-68
2023/05/13 10:39:31;;;;;;;3.10;1.30;;;24.60;51.40;;;;;;5013456;28;20199;-68
2023/05/13 10:42:46;;;;;;;1.30;1.30;;;24.60;51.10;;;;;;4976367;28;20199;-68
2023/05/13 10:45:18;;;;;;;1.77;1.40;;;24.70;50.90;;;;;;5004782;28;20245;-67
2023/05/13 10:47:50;;;;;;;1.65;1.30;;;24.70;50.60;;;;;;5012018;28;20558;-67
2023/05/13 10:50:24;;;;;;;1.20;1.20;;;24.80;50.30;;;;;;5013955;28;20254;-67
2023/05/13 10:52:56;;;;;;;1.42;1.40;;;24.80;50.20;;;;;;5011617;28;20284;-68
2023/05/13 10:55:23;;;;;;;2.33;1.38;;;24.90;50.00;;;;;;4992677;28;20638;-67
2023/05/13 10:58:12;;;;;;;1.40;1.40;;;25.00;49.80;;;;;;4994140;28;20209;-67
2023/05/13 11:00:41;;;;;;;1.40;1.30;;;25.00;49.60;;;;;;5006985;28;20187;-68
2023/05/13 11:03:16;;;;;;;1.30;1.20;;;25.00;49.30;;;;;;5011377;28;20338;-67
2023/05/13 11:05:58;;;;;;;1.50;1.40;;;23.80;48.10;;;;;;5006369;28;20216;-67
2023/05/13 11:08:38;;;;;;;1.73;1.58;;;24.80;48.80;;;;;;5007672;28;20203;-67
2023/05/13 11:11:27;;;;;;;2.95;1.45;;;24.70;48.60;;;;;;5007341;28;20529;-67
2023/05/13 11:14:05;;;;;;;1.40;1.30;;;24.50;48.50;;;;;;5003283;28;20196;-67
2023/05/13 11:16:33;;;;;;;1.98;1.55;;;24.30;48.50;;;;;;5007449;28;20281;-67
2023/05/13 11:19:02;;;;;;;1.55;1.45;;;24.30;48.50;;;;;;5011565;28;20293;-67
2023/05/13 11:21:31;;;;;;;1.52;1.42;;;24.20;48.50;;;;;;4994544;28;20226;-68
2023/05/13 11:24:00;;;;;;;1.35;1.20;;;24.20;48.50;;;;;;5006984;28;20211;-66
2023/05/13 11:26:44;;;;;;;0.98;0.93;;;24.30;48.40;;;;;;5011726;28;20234;-67
2023/05/13 11:29:12;;;;;;;1.40;1.30;;;23.40;47.40;;;;;;5012964;28;20398;-68
2023/05/13 11:31:45;;;;;;;1.25;1.25;;;24.50;48.00;;;;;;5013414;28;20271;-67
2023/05/13 11:34:14;;;;;;;1.48;1.38;;;24.60;47.90;;;;;;4993898;28;20819;-67
2023/05/13 11:36:45;;;;;;;1.40;1.30;;;24.60;47.70;;;;;;4993016;28;20219;-67
2023/05/13 11:39:14;;;;;;;1.65;1.55;;;24.70;47.60;;;;;;5012031;28;20619;-67
2023/05/13 11:41:44;;;;;;;1.90;1.33;;;24.80;47.40;;;;;;5012145;28;20290;-66
2023/05/13 11:44:14;;;;;;;3.47;1.65;;;24.80;47.10;;;;;;5011690;28;20277;-66
2023/05/13 11:46:55;;;;;;;1.48;1.38;;;24.80;46.70;;;;;;5012356;28;20207;-67
2023/05/13 11:49:37;;;;;;;1.92;1.60;;;24.70;46.60;;;;;;4999436;28;20244;-66
2023/05/13 11:52:07;;;;;;;1.30;1.30;;;24.70;46.00;;;;;;5009916;28;20195;-66
2023/05/13 11:54:45;;;;;;;3.45;1.42;;;24.50;45.70;;;;;;5012494;28;20203;-67
2023/05/13 11:57:22;;;;;;;2.15;1.50;;;24.50;45.60;;;;;;5011096;28;20298;-67
2023/05/13 11:59:57;;;;;;;1.40;1.30;;;24.50;45.10;;;;;;4994970;28;20205;-67
2023/05/13 12:02:25;;;;;;;1.50;1.40;;;24.60;45.20;;;;;;5007232;28;20190;-68
2023/05/13 12:04:52;;;;;;;1.02;1.00;;;24.70;45.40;;;;;;5011731;28;20242;-67
2023/05/13 12:07:21;;;;;;;1.40;1.30;;;24.80;45.50;;;;;;4993858;28;20701;-67
2023/05/13 12:09:48;;;;;;;1.60;1.25;;;24.90;45.50;;;;;;5011710;28;20286;-66
2023/05/13 12:12:16;;;;;;;1.30;1.20;;;24.90;45.70;;;;;;5012527;28;20257;-66
2023/05/13 12:14:45;;;;;;;1.25;1.25;;;24.80;45.70;;;;;;5012552;28;20270;-67
2023/05/13 12:17:13;;;;;;;1.38;1.27;;;24.70;45.90;;;;;;5011157;28;20230;-68
2023/05/13 12:19:40;;;;;;;1.40;1.30;;;24.60;46.10;;;;;;5011887;28;20274;-68
2023/05/13 12:22:08;;;;;;;1.17;1.17;;;24.50;46.80;;;;;;5010987;28;20238;-67
2023/05/13 12:24:35;;;;;;;1.48;1.38;;;24.40;46.40;;;;;;4993902;28;20230;-67
2023/05/13 12:27:06;;;;;;;1.40;1.30;;;24.20;46.40;;;;;;5011891;28;20203;-67
2023/05/13 12:29:41;;;;;;;1.40;1.30;;;24.10;46.50;;;;;;5011874;28;20215;-67
2023/05/13 12:32:11;;;;;;;1.40;1.30;;;24.00;46.60;;;;;;5001904;28;20213;-67
2023/05/13 12:34:40;;;;;;;1.38;1.38;;;23.90;46.80;;;;;;5005558;28;20192;-67
2023/05/13 12:37:11;;;;;;;1.10;1.10;;;23.80;47.00;;;;;;5010769;28;20687;-67
2023/05/13 12:39:38;;;;;;;1.15;1.08;;;23.80;47.80;;;;;;5011053;28;20261;-67
2023/05/13 12:42:06;;;;;;;1.30;1.20;;;23.80;47.50;;;;;;5011197;28;20191;-67
2023/05/13 12:44:33;;;;;;;1.65;1.50;;;23.90;47.70;;;;;;5011807;28;20246;-67
2023/05/13 12:47:00;;;;;;;1.70;1.60;;;24.00;47.90;;;;;;5010646;28;20203;-67
2023/05/13 12:49:28;;;;;;;1.17;1.10;;;24.10;48.00;;;;;;5010931;28;20211;-67
2023/05/13 12:51:56;;;;;;;1.30;1.20;;;24.10;48.20;;;;;;5010275;28;20757;-67
2023/05/13 12:54:23;;;;;;;1.23;1.13;;;24.00;48.30;;;;;;5010818;28;20183;-67
2023/05/13 12:56:50;;;;;;;1.27;1.25;;;24.00;48.50;;;;;;4993262;28;20306;-67
2023/05/13 12:59:18;;;;;;;1.40;1.30;;;24.00;48.80;;;;;;5010963;28;20548;-67